createdAt,value
2018-03-07T00:01:32.769Z,87.81
2018-03-07T00:04:00.269Z,87.79
2018-03-07T00:06:27.753Z,87.53
2018-03-07T00:08:55.213Z,87.41
2018-03-07T00:11:22.671Z,87.31
2018-03-07T00:13:50.171Z,87.52
2018-03-07T00:16:17.599Z,87.14
2018-03-07T00:18:45.101Z,87.10
2018-03-07T00:21:12.555Z,87.25
2018-03-07T00:23:40.130Z,86.92
2018-03-07T00:26:07.601Z,86.90
2018-03-07T00:28:35.023Z,87.05
2018-03-07T00:31:02.540Z,87.20
2018-03-07T00:33:30.037Z,87.25
2018-03-07T00:35:57.543Z,87.54
2018-03-07T00:38:25.062Z,87.35
2018-03-07T00:40:52.549Z,87.61
2018-03-07T00:43:20.011Z,87.82
2018-03-07T00:45:47.465Z,88.02
2018-03-07T00:48:14.989Z,87.72
2018-03-07T00:50:42.447Z,87.79
2018-03-07T00:53:09.957Z,88.08
2018-03-07T00:55:37.402Z,88.04
2018-03-07T00:58:04.947Z,87.94
2018-03-07T01:00:32.453Z,87.87
2018-03-07T01:02:59.900Z,87.89
2018-03-07T01:05:27.369Z,87.90
2018-03-07T01:07:54.825Z,87.87
2018-03-07T01:10:22.337Z,87.78
2018-03-07T01:12:49.817Z,87.87
2018-03-07T01:15:17.271Z,88.25
2018-03-07T01:17:44.750Z,88.24
2018-03-07T01:20:12.203Z,87.96
2018-03-07T01:22:39.644Z,87.82
2018-03-07T01:25:07.116Z,88.25
2018-03-07T01:27:34.610Z,88.33
2018-03-07T01:30:02.055Z,88.72
2018-03-07T01:32:29.553Z,88.46
2018-03-07T01:34:57.052Z,88.36
2018-03-07T01:37:25.227Z,88.61
2018-03-07T01:39:54.999Z,88.83
2018-03-07T01:42:22.490Z,88.93
2018-03-07T01:44:49.949Z,88.57
2018-03-07T01:47:17.400Z,88.59
2018-03-07T01:49:44.935Z,89.00
2018-03-07T01:52:12.392Z,89.33
2018-03-07T01:54:39.903Z,89.59
2018-03-07T01:57:07.362Z,89.72
2018-03-07T01:59:34.846Z,89.38
2018-03-07T02:02:02.301Z,89.22
2018-03-07T02:04:29.812Z,88.83
2018-03-07T02:06:57.302Z,89.15
2018-03-07T02:09:24.763Z,89.40
2018-03-07T02:11:52.230Z,89.20
2018-03-07T02:14:19.810Z,88.78
2018-03-07T02:16:47.278Z,88.69
2018-03-07T02:19:14.760Z,88.49
2018-03-07T02:21:42.245Z,88.31
2018-03-07T02:24:09.720Z,88.59
2018-03-07T02:26:37.162Z,88.67
2018-03-07T02:29:04.694Z,89.27
2018-03-07T02:31:32.137Z,89.62
2018-03-07T02:33:59.700Z,89.93
2018-03-07T02:36:33.491Z,89.92
2018-03-07T02:39:01.023Z,90.03
2018-03-07T02:41:28.507Z,90.09
2018-03-07T02:43:55.969Z,89.94
2018-03-07T02:46:23.444Z,90.05
2018-03-07T02:48:50.891Z,89.97
2018-03-07T02:51:18.367Z,89.35
2018-03-07T02:53:45.813Z,89.49
2018-03-07T02:56:13.260Z,89.83
2018-03-07T02:58:40.774Z,89.94
2018-03-07T03:01:08.232Z,89.61
2018-03-07T03:03:35.755Z,89.94
2018-03-07T03:08:30.300Z,90.24
2018-03-07T03:10:57.758Z,90.24
2018-03-07T03:13:26.344Z,90.31
2018-03-07T03:15:53.779Z,90.06
2018-03-07T03:18:21.236Z,90.24
2018-03-07T03:20:48.692Z,90.21
2018-03-07T03:23:16.150Z,90.02
2018-03-07T03:25:43.609Z,89.88
2018-03-07T03:28:11.654Z,90.04
2018-03-07T03:30:39.105Z,90.23
2018-03-07T03:33:06.570Z,90.38
2018-03-07T03:35:34.044Z,90.30
2018-03-07T03:38:01.490Z,90.36
2018-03-07T03:40:29.208Z,90.30
2018-03-07T03:42:56.667Z,90.61
2018-03-07T03:45:24.119Z,90.62
2018-03-07T03:47:51.601Z,90.51
2018-03-07T03:50:19.050Z,90.74
2018-03-07T03:52:46.544Z,90.72
2018-03-07T03:55:14.087Z,90.71
2018-03-07T03:57:46.503Z,90.28
2018-03-07T04:00:13.944Z,90.33
2018-03-07T04:02:41.437Z,90.25
2018-03-07T04:05:08.909Z,90.27
2018-03-07T04:07:36.373Z,90.39
2018-03-07T04:10:03.841Z,90.41
2018-03-07T04:12:31.313Z,90.35
2018-03-07T04:14:58.775Z,90.48
2018-03-07T04:17:26.239Z,90.52
2018-03-07T04:19:53.768Z,90.57
2018-03-07T04:22:22.122Z,90.50
2018-03-07T04:24:49.587Z,90.43
2018-03-07T04:27:17.097Z,90.58
2018-03-07T04:29:44.606Z,90.58
2018-03-07T04:32:12.111Z,90.61
2018-03-07T04:34:39.638Z,90.57
2018-03-07T04:37:07.096Z,90.51
2018-03-07T04:39:34.552Z,90.61
2018-03-07T04:42:02.048Z,90.66
2018-03-07T04:44:29.479Z,90.51
2018-03-07T04:46:56.968Z,90.31
2018-03-07T04:49:24.445Z,90.40
2018-03-07T04:51:51.909Z,90.41
2018-03-07T04:54:19.376Z,90.43
2018-03-07T04:56:46.845Z,90.45
2018-03-07T04:59:14.291Z,90.41
2018-03-07T05:01:41.749Z,90.53
2018-03-07T05:04:09.211Z,90.42
2018-03-07T05:06:36.666Z,90.37
2018-03-07T05:09:04.158Z,90.40
2018-03-07T05:11:31.630Z,90.42
2018-03-07T05:13:59.083Z,90.42
2018-03-07T05:16:26.599Z,90.31
2018-03-07T05:18:54.089Z,90.25
2018-03-07T05:21:21.628Z,90.38
2018-03-07T05:23:49.147Z,90.42
2018-03-07T05:26:16.654Z,90.52
2018-03-07T05:28:44.115Z,90.72
2018-03-07T05:31:11.619Z,91.08
2018-03-07T05:33:39.118Z,91.16
2018-03-07T05:36:06.705Z,91.12
2018-03-07T05:38:34.171Z,91.02
2018-03-07T05:41:01.971Z,91.03
2018-03-07T05:43:30.402Z,90.99
2018-03-07T05:45:57.924Z,90.89
2018-03-07T05:48:25.382Z,90.80
2018-03-07T05:50:52.839Z,90.57
2018-03-07T05:53:20.331Z,90.58
2018-03-07T05:55:47.801Z,90.51
2018-03-07T05:58:15.252Z,90.55
2018-03-07T06:00:42.757Z,90.81
2018-03-07T06:03:10.537Z,91.00
2018-03-07T06:05:38.003Z,91.10
2018-03-07T06:08:06.223Z,91.30
2018-03-07T06:10:33.729Z,91.16
2018-03-07T06:13:01.313Z,91.09
2018-03-07T06:15:28.751Z,90.98
2018-03-07T06:17:56.284Z,90.89
2018-03-07T06:20:23.785Z,90.81
2018-03-07T06:22:51.221Z,90.85
2018-03-07T06:25:18.675Z,90.97
2018-03-07T06:27:46.185Z,91.04
2018-03-07T06:30:13.695Z,91.09
2018-03-07T06:32:41.173Z,91.31
2018-03-07T06:35:08.756Z,91.33
2018-03-07T06:37:36.280Z,91.32
2018-03-07T06:40:03.751Z,91.01
2018-03-07T06:42:31.243Z,91.03
2018-03-07T06:44:58.751Z,91.16
2018-03-07T06:47:26.261Z,90.92
2018-03-07T06:49:54.702Z,90.75
2018-03-07T06:52:22.237Z,90.54
2018-03-07T06:54:49.811Z,90.44
2018-03-07T06:57:17.281Z,90.45
2018-03-07T06:59:44.781Z,90.42
2018-03-07T07:02:12.257Z,90.42
2018-03-07T07:04:39.750Z,90.44
2018-03-07T07:07:07.213Z,90.36
2018-03-07T07:09:34.698Z,90.47
2018-03-07T07:12:02.217Z,90.65
2018-03-07T07:14:29.709Z,90.66
2018-03-07T07:16:57.232Z,90.61
2018-03-07T07:19:24.697Z,90.60
2018-03-07T07:21:52.177Z,90.63
2018-03-07T07:24:19.615Z,90.39
2018-03-07T07:29:14.821Z,90.24
2018-03-07T07:31:42.435Z,90.22
2018-03-07T07:34:09.942Z,90.24
2018-03-07T07:36:37.433Z,89.93
2018-03-07T07:39:04.897Z,89.63
2018-03-07T07:41:32.353Z,89.33
2018-03-07T07:43:59.906Z,89.06
2018-03-07T07:46:27.378Z,88.86
2018-03-07T07:48:54.820Z,88.97
2018-03-07T07:51:22.305Z,88.91
2018-03-07T07:53:49.749Z,88.94
2018-03-07T07:56:17.240Z,88.99
2018-03-07T07:58:44.719Z,88.81
2018-03-07T08:01:12.176Z,88.55
2018-03-07T08:03:39.714Z,88.61
2018-03-07T08:06:07.189Z,88.52
2018-03-07T08:08:34.651Z,88.35
2018-03-07T08:11:02.111Z,88.56
2018-03-07T08:13:29.586Z,88.57
2018-03-07T08:15:57.048Z,88.54
2018-03-07T08:18:24.502Z,88.58
2018-03-07T08:20:52.011Z,88.46
2018-03-07T08:23:19.485Z,88.24
2018-03-07T08:25:47.638Z,88.11
2018-03-07T08:28:15.133Z,88.12
2018-03-07T08:30:42.607Z,88.02
2018-03-07T08:33:10.045Z,88.02
2018-03-07T08:35:37.490Z,87.85
2018-03-07T08:38:05.142Z,87.99
2018-03-07T08:40:33.297Z,88.12
2018-03-07T08:43:00.750Z,87.95
2018-03-07T08:45:28.255Z,87.98
2018-03-07T08:47:55.767Z,87.65
2018-03-07T08:50:23.213Z,87.47
2018-03-07T08:52:50.683Z,87.53
2018-03-07T08:55:18.148Z,87.32
2018-03-07T08:57:45.659Z,87.54
2018-03-07T09:00:13.163Z,87.39
2018-03-07T09:02:40.757Z,86.78
2018-03-07T09:05:08.238Z,86.73
2018-03-07T09:07:35.692Z,86.61
2018-03-07T09:10:03.162Z,86.28
2018-03-07T09:12:30.609Z,86.16
2018-03-07T09:14:58.875Z,86.01
2018-03-07T09:17:27.208Z,85.38
2018-03-07T09:19:54.695Z,85.36
2018-03-07T09:22:22.219Z,85.16
2018-03-07T09:24:49.719Z,84.43
2018-03-07T09:27:17.198Z,84.57
2018-03-07T09:29:44.684Z,84.06
2018-03-07T09:32:12.158Z,83.71
2018-03-07T09:34:39.653Z,83.21
2018-03-07T09:37:07.153Z,82.23
2018-03-07T09:39:34.631Z,82.26
2018-03-07T09:42:02.117Z,82.43
2018-03-07T09:44:29.589Z,82.16
2018-03-07T09:46:57.167Z,82.32
2018-03-07T09:49:24.635Z,81.27
2018-03-07T09:51:52.163Z,81.51
2018-03-07T09:54:19.623Z,80.40
2018-03-07T09:56:47.090Z,79.35
2018-03-07T09:59:14.555Z,77.95
2018-03-07T10:01:42.023Z,77.71
2018-03-07T10:04:09.787Z,77.83
2018-03-07T10:06:37.330Z,77.94
2018-03-07T10:09:04.775Z,77.97
2018-03-07T10:11:32.231Z,77.99
2018-03-07T10:13:59.733Z,77.12
2018-03-07T10:16:27.273Z,76.53
2018-03-07T10:18:54.709Z,76.16
2018-03-07T10:21:22.214Z,76.12
2018-03-07T10:23:49.671Z,76.56
2018-03-07T10:26:17.134Z,76.38
2018-03-07T10:28:44.628Z,76.94
2018-03-07T10:31:12.143Z,77.76
2018-03-07T10:33:39.673Z,77.44
2018-03-07T10:36:07.171Z,77.92
2018-03-07T10:38:34.633Z,78.37
2018-03-07T10:41:02.155Z,78.49
2018-03-07T10:43:29.645Z,78.67
2018-03-07T10:45:57.100Z,78.54
2018-03-07T10:48:24.680Z,78.84
2018-03-07T10:50:52.144Z,77.27
2018-03-07T10:53:19.663Z,76.94
2018-03-07T10:55:47.182Z,76.10
2018-03-07T10:58:14.634Z,76.38
2018-03-07T11:00:42.189Z,75.47
2018-03-07T11:03:09.700Z,75.74
2018-03-07T11:05:37.209Z,75.41
2018-03-07T11:08:04.683Z,75.74
2018-03-07T11:10:32.195Z,76.82
2018-03-07T11:12:59.630Z,77.25
2018-03-07T11:15:27.075Z,77.43
2018-03-07T11:17:59.627Z,77.82
2018-03-07T11:20:27.194Z,77.50
2018-03-07T11:22:54.688Z,77.85
2018-03-07T11:25:22.244Z,78.55
2018-03-07T11:27:49.754Z,79.03
2018-03-07T11:30:17.258Z,78.92
2018-03-07T11:32:44.766Z,79.60
2018-03-07T11:35:12.269Z,80.02
2018-03-07T11:37:40.530Z,79.92
2018-03-07T11:40:08.069Z,80.10
2018-03-07T11:42:35.566Z,80.49
2018-03-07T11:45:03.093Z,80.20
2018-03-07T11:47:30.577Z,80.35
2018-03-07T11:49:58.205Z,80.78
2018-03-07T11:52:25.696Z,80.21
2018-03-07T11:54:53.258Z,79.87
2018-03-07T11:57:20.697Z,79.72
2018-03-07T11:59:48.166Z,79.44
2018-03-07T12:02:15.619Z,79.69
2018-03-07T12:04:43.127Z,80.06
2018-03-07T12:07:10.683Z,80.47
2018-03-07T12:09:38.172Z,80.33
2018-03-07T12:12:05.634Z,80.44
2018-03-07T12:14:33.110Z,80.33
2018-03-07T12:17:01.153Z,80.33
2018-03-07T12:19:33.671Z,80.51
2018-03-07T12:22:01.176Z,80.20
2018-03-07T12:24:28.726Z,79.82
2018-03-07T12:26:56.190Z,79.62
2018-03-07T12:29:23.661Z,79.77
2018-03-07T12:31:51.112Z,80.02
2018-03-07T12:34:18.607Z,80.21
2018-03-07T12:36:46.051Z,79.94
2018-03-07T12:39:13.525Z,79.75
2018-03-07T12:41:41.004Z,79.57
2018-03-07T12:44:08.440Z,79.80
2018-03-07T12:46:35.973Z,79.33
2018-03-07T12:49:03.429Z,79.44
2018-03-07T12:51:30.961Z,79.68
2018-03-07T12:53:58.452Z,79.92
2018-03-07T12:56:25.947Z,80.07
2018-03-07T12:58:53.449Z,79.70
2018-03-07T13:01:20.916Z,79.81
2018-03-07T13:03:48.390Z,80.24
2018-03-07T13:06:15.883Z,80.42
2018-03-07T13:08:43.356Z,80.54
2018-03-07T13:11:10.814Z,80.81
2018-03-07T13:13:38.247Z,80.74
2018-03-07T13:16:05.770Z,80.76
2018-03-07T13:18:33.224Z,80.82
2018-03-07T13:21:00.682Z,80.59
2018-03-07T13:23:28.138Z,80.51
2018-03-07T13:25:57.766Z,80.53
2018-03-07T13:28:25.248Z,80.92
2018-03-07T13:30:52.712Z,80.80
2018-03-07T13:33:20.199Z,80.64
2018-03-07T13:35:47.684Z,80.08
2018-03-07T13:38:15.174Z,79.13
2018-03-07T13:40:42.628Z,76.54
2018-03-07T13:43:10.066Z,73.00
2018-03-07T13:45:37.705Z,70.10
2018-03-07T13:48:05.182Z,67.91
2018-03-07T13:50:32.638Z,66.57
2018-03-07T13:53:00.128Z,65.01
2018-03-07T13:55:27.632Z,65.76
2018-03-07T13:57:55.164Z,66.29
2018-03-07T14:00:22.664Z,66.63
2018-03-07T14:02:50.136Z,67.19
2018-03-07T14:05:17.624Z,68.27
2018-03-07T14:07:45.130Z,69.37
2018-03-07T14:10:12.660Z,69.86
2018-03-07T14:12:40.139Z,70.98
2018-03-07T14:15:07.602Z,71.79
2018-03-07T14:17:35.042Z,72.64
2018-03-07T14:20:02.514Z,72.91
2018-03-07T14:22:29.974Z,73.37
2018-03-07T14:24:57.470Z,73.82
2018-03-07T14:27:24.932Z,74.00
2018-03-07T14:29:53.359Z,74.04
2018-03-07T14:32:20.836Z,74.59
2018-03-07T14:34:48.300Z,74.87
2018-03-07T14:37:15.806Z,74.94
2018-03-07T14:39:43.321Z,75.22
2018-03-07T14:42:10.775Z,75.23
2018-03-07T14:44:38.254Z,76.00
2018-03-07T14:47:05.733Z,75.88
2018-03-07T14:49:33.284Z,75.67
2018-03-07T14:52:00.766Z,75.87
2018-03-07T14:54:28.216Z,75.63
2018-03-07T14:56:55.702Z,75.66
2018-03-07T14:59:23.169Z,75.92
2018-03-07T15:01:50.653Z,76.12
2018-03-07T15:04:18.128Z,76.25
2018-03-07T15:06:45.604Z,76.51
2018-03-07T15:09:14.200Z,76.94
2018-03-07T15:11:41.653Z,77.01
2018-03-07T15:16:51.026Z,76.67
2018-03-07T15:19:18.537Z,76.51
2018-03-07T15:21:45.987Z,76.55
2018-03-07T15:24:13.535Z,76.39
2018-03-07T15:26:40.990Z,76.06
2018-03-07T15:29:08.462Z,76.01
2018-03-07T15:31:36.181Z,75.80
2018-03-07T15:34:03.658Z,76.25
2018-03-07T15:36:31.311Z,76.50
2018-03-07T15:38:58.757Z,76.58
2018-03-07T15:41:27.766Z,76.42
2018-03-07T15:43:55.286Z,76.29
2018-03-07T15:46:22.758Z,76.18
2018-03-07T15:48:50.217Z,75.97
2018-03-07T15:51:17.722Z,76.20
2018-03-07T15:53:45.227Z,76.25
2018-03-07T15:56:12.739Z,76.60
2018-03-07T15:58:40.244Z,76.80
2018-03-07T16:01:07.749Z,77.05
2018-03-07T16:03:35.205Z,77.35
2018-03-07T16:06:02.642Z,77.48
2018-03-07T16:08:30.119Z,77.56
2018-03-07T16:10:58.379Z,77.71
2018-03-07T16:13:25.837Z,77.83
2018-03-07T16:15:53.314Z,78.09
2018-03-07T16:18:20.756Z,78.32
2018-03-07T16:20:48.523Z,78.32
2018-03-07T16:23:16.021Z,78.41
2018-03-07T16:25:43.522Z,78.65
2018-03-07T16:28:11.033Z,78.86
2018-03-07T16:30:38.510Z,79.02
2018-03-07T16:33:05.997Z,79.19
2018-03-07T16:35:33.481Z,79.35
2018-03-07T16:38:01.001Z,79.66
2018-03-07T16:40:28.457Z,79.63
2018-03-07T16:42:55.971Z,79.76
2018-03-07T16:45:23.453Z,80.27
2018-03-07T16:47:51.066Z,79.99
2018-03-07T16:50:18.509Z,80.19
2018-03-07T16:52:45.972Z,80.25
2018-03-07T16:55:13.522Z,80.31
2018-03-07T16:57:41.005Z,80.37
2018-03-07T17:00:08.639Z,80.40
2018-03-07T17:02:36.126Z,80.43
2018-03-07T17:05:04.466Z,80.54
2018-03-07T17:07:31.957Z,80.50
2018-03-07T17:09:59.571Z,80.61
2018-03-07T17:12:27.067Z,80.43
2018-03-07T17:14:54.584Z,80.21
2018-03-07T17:17:22.097Z,80.19
2018-03-07T17:19:49.572Z,80.24
2018-03-07T17:22:17.054Z,80.21
2018-03-07T17:24:44.524Z,80.20
2018-03-07T17:27:11.965Z,80.34
2018-03-07T17:29:39.473Z,80.49
2018-03-07T17:32:06.957Z,80.45
2018-03-07T17:34:34.401Z,80.44
2018-03-07T17:37:01.894Z,80.51
2018-03-07T17:39:29.421Z,80.48
2018-03-07T17:41:56.999Z,80.40
2018-03-07T17:44:24.448Z,80.30
2018-03-07T17:46:51.897Z,79.89
2018-03-07T17:49:19.399Z,79.86
2018-03-07T17:51:46.851Z,79.78
2018-03-07T17:54:14.315Z,79.62
2018-03-07T17:56:41.779Z,79.54
2018-03-07T17:59:09.277Z,79.56
2018-03-07T18:01:36.806Z,79.88
2018-03-07T18:04:04.278Z,80.15
2018-03-07T18:06:31.777Z,79.90
2018-03-07T18:08:59.240Z,79.29
2018-03-07T18:11:26.762Z,79.07
2018-03-07T18:13:54.215Z,78.93
2018-03-07T18:16:21.682Z,78.95
2018-03-07T18:18:49.153Z,78.90
2018-03-07T18:21:16.649Z,78.77
2018-03-07T18:23:44.239Z,78.57
2018-03-07T18:26:11.692Z,78.62
2018-03-07T18:28:39.141Z,78.61
2018-03-07T18:31:06.631Z,78.63
2018-03-07T18:33:34.093Z,78.62
2018-03-07T18:36:01.573Z,78.58
2018-03-07T18:38:29.061Z,78.66
2018-03-07T18:40:56.615Z,78.61
2018-03-07T18:43:24.091Z,78.55
2018-03-07T18:45:51.634Z,78.50
2018-03-07T18:48:19.165Z,78.22
2018-03-07T18:50:46.623Z,78.24
2018-03-07T18:53:14.065Z,78.42
2018-03-07T18:55:41.543Z,78.35
2018-03-07T18:58:10.391Z,78.59
2018-03-07T19:00:37.903Z,78.52
2018-03-07T19:03:05.357Z,78.62
2018-03-07T19:05:33.736Z,78.58
2018-03-07T19:08:01.185Z,78.43
2018-03-07T19:10:28.653Z,78.52
2018-03-07T19:12:56.107Z,78.31
2018-03-07T19:15:23.562Z,78.31
2018-03-07T19:17:51.046Z,78.26
2018-03-07T19:20:20.383Z,78.17
2018-03-07T19:22:47.837Z,78.03
2018-03-07T19:25:15.331Z,77.96
2018-03-07T19:27:42.795Z,78.12
2018-03-07T19:30:10.267Z,78.14
2018-03-07T19:32:37.721Z,78.13
2018-03-07T19:35:05.176Z,78.28
2018-03-07T19:37:33.003Z,78.21
2018-03-07T19:40:00.471Z,78.17
2018-03-07T19:42:27.912Z,78.12
2018-03-07T19:44:55.380Z,78.03
2018-03-07T19:47:22.837Z,78.11
2018-03-07T19:49:50.318Z,78.12
2018-03-07T19:52:17.781Z,78.03
2018-03-07T19:54:45.260Z,78.06
2018-03-07T19:57:12.747Z,77.84
2018-03-07T19:59:40.213Z,77.64
2018-03-07T20:02:07.948Z,77.37
2018-03-07T20:04:35.451Z,77.21
2018-03-07T20:07:02.931Z,77.33
2018-03-07T20:09:30.409Z,77.06
2018-03-07T20:11:57.860Z,76.94
2018-03-07T20:14:25.335Z,76.96
2018-03-07T20:16:52.803Z,77.03
2018-03-07T20:19:20.262Z,77.12
2018-03-07T20:21:47.741Z,77.17
2018-03-07T20:24:15.219Z,77.33
2018-03-07T20:26:42.774Z,77.25
2018-03-07T20:29:10.262Z,77.29
2018-03-07T20:31:37.743Z,77.42
2018-03-07T20:34:05.242Z,77.34
2018-03-07T20:36:32.737Z,76.98
2018-03-07T20:39:00.253Z,76.98
2018-03-07T20:41:27.712Z,77.13
2018-03-07T20:43:55.164Z,76.83
2018-03-07T20:46:22.629Z,76.77
2018-03-07T20:48:50.057Z,76.65
2018-03-07T20:51:17.573Z,76.70
2018-03-07T20:53:45.042Z,76.62
2018-03-07T20:56:12.602Z,76.49
2018-03-07T20:58:40.101Z,76.49
2018-03-07T21:01:07.566Z,76.54
2018-03-07T21:03:35.012Z,76.51
2018-03-07T21:06:02.474Z,76.40
2018-03-07T21:08:30.023Z,76.43
2018-03-07T21:10:57.508Z,76.43
2018-03-07T21:13:24.996Z,76.48
2018-03-07T21:15:52.476Z,76.46
2018-03-07T21:18:19.969Z,76.56
2018-03-07T21:20:47.405Z,76.55
2018-03-07T21:23:14.877Z,76.25
2018-03-07T21:25:42.359Z,76.23
2018-03-07T21:28:09.833Z,76.12
2018-03-07T21:30:37.292Z,76.19
2018-03-07T21:33:04.746Z,76.26
2018-03-07T21:35:32.218Z,76.50
2018-03-07T21:37:59.700Z,76.82
2018-03-07T21:40:27.138Z,76.93
2018-03-07T21:42:54.596Z,77.14
2018-03-07T21:45:22.725Z,77.24
2018-03-07T21:47:50.872Z,77.29
2018-03-07T21:50:18.961Z,77.22
2018-03-07T21:52:46.390Z,77.35
2018-03-07T21:55:13.840Z,77.54
2018-03-07T21:57:41.448Z,77.59
2018-03-07T22:00:08.928Z,77.62
2018-03-07T22:02:36.922Z,77.56
2018-03-07T22:05:04.511Z,77.56
2018-03-07T22:07:31.980Z,77.53
2018-03-07T22:09:59.435Z,77.62
2018-03-07T22:12:26.862Z,77.77
2018-03-07T22:14:54.466Z,77.82
2018-03-07T22:17:21.936Z,77.93
2018-03-07T22:19:49.392Z,78.07
2018-03-07T22:22:16.829Z,78.11
2018-03-07T22:24:44.310Z,78.08
2018-03-07T22:27:11.774Z,77.92
2018-03-07T22:29:39.218Z,78.00
2018-03-07T22:32:06.701Z,78.09
2018-03-07T22:34:34.139Z,77.99
2018-03-07T22:37:01.569Z,78.09
2018-03-07T22:39:29.035Z,78.04
2018-03-07T22:41:56.530Z,78.05
2018-03-07T22:44:23.958Z,78.18
2018-03-07T22:46:51.453Z,78.33
2018-03-07T22:49:18.876Z,78.36
2018-03-07T22:51:46.379Z,78.12
2018-03-07T22:54:13.840Z,78.25
2018-03-07T22:56:41.344Z,78.21
2018-03-07T22:59:08.792Z,78.28
2018-03-07T23:01:36.219Z,78.33
2018-03-07T23:04:03.710Z,78.33
2018-03-07T23:06:31.148Z,78.33
2018-03-07T23:08:58.599Z,78.37
2018-03-07T23:11:26.079Z,78.35
2018-03-07T23:13:53.522Z,78.35
2018-03-07T23:16:20.965Z,78.40
2018-03-07T23:18:48.470Z,78.61
2018-03-07T23:21:16.110Z,78.61
2018-03-07T23:23:43.560Z,78.57
2018-03-07T23:26:11.014Z,78.49
2018-03-07T23:28:38.477Z,78.52
2018-03-07T23:31:05.975Z,78.45
2018-03-07T23:33:33.440Z,78.54
2018-03-07T23:36:00.876Z,78.46
2018-03-07T23:38:28.349Z,78.58
2018-03-07T23:40:55.788Z,78.53
2018-03-07T23:43:23.236Z,78.44
2018-03-07T23:45:50.661Z,78.52
2018-03-07T23:48:18.144Z,78.56
2018-03-07T23:50:45.636Z,78.49
2018-03-07T23:53:13.068Z,78.40
2018-03-07T23:55:40.553Z,78.04
2018-03-07T23:58:08.017Z,78.05
